sensor_id;sensor_type;location;lat;lon;timestamp;temperature;humidity
54178;DHT22;40085;53.004;6.770;2023-02-13T09:46:36;7.90;99.90
54178;DHT22;40085;53.004;6.770;2023-02-13T09:49:19;7.90;99.90
54178;DHT22;40085;53.004;6.770;2023-02-13T09:51:53;7.80;99.90
54178;DHT22;40085;53.004;6.770;2023-02-13T09:54:20;7.60;99.90
54178;DHT22;40085;53.004;6.770;2023-02-13T09:57:01;7.90;99.90
54178;DHT22;40085;53.004;6.770;2023-02-13T10:00:00;7.80;99.90
54178;DHT22;40085;53.004;6.770;2023-02-13T10:15:47;7.80;99.90
54178;DHT22;40085;53.004;6.770;2023-02-13T10:18:20;7.90;99.90
54178;DHT22;40085;53.004;6.770;2023-02-13T10:20:55;8.00;99.90
54178;DHT22;40085;53.004;6.770;2023-02-13T10:25:57;8.00;99.90
54178;DHT22;40085;53.004;6.770;2023-02-13T10:28:37;8.00;99.90
54178;DHT22;40085;53.004;6.770;2023-02-13T10:31:09;8.00;99.90
54178;DHT22;40085;53.004;6.770;2023-02-13T10:33:52;7.80;99.90
54178;DHT22;40085;53.004;6.770;2023-02-13T10:36:30;8.10;99.90
54178;DHT22;40085;53.004;6.770;2023-02-13T10:39:24;8.10;99.90
54178;DHT22;40085;53.004;6.770;2023-02-13T10:42:04;8.20;99.90
54178;DHT22;40085;53.004;6.770;2023-02-13T10:50:16;8.10;99.90
54178;DHT22;40085;53.004;6.770;2023-02-13T11:04:13;8.50;99.90
54178;DHT22;40085;53.004;6.770;2023-02-13T11:06:55;8.50;99.90
54178;DHT22;40085;53.004;6.770;2023-02-13T11:09:22;8.50;99.90
54178;DHT22;40085;53.004;6.770;2023-02-13T11:11:48;8.80;99.90
54178;DHT22;40085;53.004;6.770;2023-02-13T11:14:25;8.50;99.90
54178;DHT22;40085;53.004;6.770;2023-02-13T11:19:49;8.60;99.90
54178;DHT22;40085;53.004;6.770;2023-02-13T11:22:39;8.60;99.90
54178;DHT22;40085;53.004;6.770;2023-02-13T11:25:16;8.70;99.90
54178;DHT22;40085;53.004;6.770;2023-02-13T11:27:46;8.70;99.90
54178;DHT22;40085;53.004;6.770;2023-02-13T11:35:34;8.90;99.90
54178;DHT22;40085;53.004;6.770;2023-02-13T11:40:41;8.90;99.90
54178;DHT22;40085;53.004;6.770;2023-02-13T11:43:30;8.90;99.90
54178;DHT22;40085;53.004;6.770;2023-02-13T11:46:20;8.90;99.90
54178;DHT22;40085;53.004;6.770;2023-02-13T11:48:57;9.00;99.90
54178;DHT22;40085;53.004;6.770;2023-02-13T11:51:38;9.60;99.90
54178;DHT22;40085;53.004;6.770;2023-02-13T11:54:06;9.10;99.90
54178;DHT22;40085;53.004;6.770;2023-02-13T11:56:51;9.10;99.90
54178;DHT22;40085;53.004;6.770;2023-02-13T11:59:19;9.20;99.90
54178;DHT22;40085;53.004;6.770;2023-02-13T12:01:46;9.20;99.90
54178;DHT22;40085;53.004;6.770;2023-02-13T12:04:17;9.30;99.90
54178;DHT22;40085;53.004;6.770;2023-02-13T12:09:41;9.30;99.90
54178;DHT22;40085;53.004;6.770;2023-02-13T12:12:56;9.20;99.90
54178;DHT22;40085;53.004;6.770;2023-02-13T12:15:42;9.30;99.90
54178;DHT22;40085;53.004;6.770;2023-02-13T12:18:18;9.20;99.90
54178;DHT22;40085;53.004;6.770;2023-02-13T12:27:43;9.50;99.90
54178;DHT22;40085;53.004;6.770;2023-02-13T12:30:16;9.50;99.90
54178;DHT22;40085;53.004;6.770;2023-02-13T12:35:31;9.50;99.90
54178;DHT22;40085;53.004;6.770;2023-02-13T12:43:46;9.40;99.90
54178;DHT22;40085;53.004;6.770;2023-02-13T12:49:10;9.60;99.90
54178;DHT22;40085;53.004;6.770;2023-02-13T12:51:50;9.70;99.90
54178;DHT22;40085;53.004;6.770;2023-02-13T13:00:00;9.90;99.90
54178;DHT22;40085;53.004;6.770;2023-02-13T13:12:33;10.10;99.90
54178;DHT22;40085;53.004;6.770;2023-02-13T13:15:20;10.20;99.90
54178;DHT22;40085;53.004;6.770;2023-02-13T13:17:53;10.10;99.90
54178;DHT22;40085;53.004;6.770;2023-02-13T13:23:30;10.20;99.90
54178;DHT22;40085;53.004;6.770;2023-02-13T13:26:17;10.20;99.90
54178;DHT22;40085;53.004;6.770;2023-02-13T13:28:52;10.30;99.90
54178;DHT22;40085;53.004;6.770;2023-02-13T13:31:20;10.20;99.90
54178;DHT22;40085;53.004;6.770;2023-02-13T13:33:48;10.10;99.90
54178;DHT22;40085;53.004;6.770;2023-02-13T13:41:42;10.20;99.90
54178;DHT22;40085;53.004;6.770;2023-02-13T13:50:30;10.10;99.90
54178;DHT22;40085;53.004;6.770;2023-02-13T13:56:00;10.20;99.90
54178;DHT22;40085;53.004;6.770;2023-02-13T14:03:55;10.00;99.90
54178;DHT22;40085;53.004;6.770;2023-02-13T14:11:53;9.90;99.90
54178;DHT22;40085;53.004;6.770;2023-02-13T14:17:01;9.90;99.90
54178;DHT22;40085;53.004;6.770;2023-02-13T14:19:39;10.00;99.90
54178;DHT22;40085;53.004;6.770;2023-02-13T14:25:06;10.00;99.90
54178;DHT22;40085;53.004;6.770;2023-02-13T14:27:58;10.00;99.90
54178;DHT22;40085;53.004;6.770;2023-02-13T14:30:30;10.00;99.90
54178;DHT22;40085;53.004;6.770;2023-02-13T14:33:19;10.00;99.90
54178;DHT22;40085;53.004;6.770;2023-02-13T14:35:45;9.80;99.90
54178;DHT22;40085;53.004;6.770;2023-02-13T14:38:23;10.00;99.90
54178;DHT22;40085;53.004;6.770;2023-02-13T14:40:50;10.00;99.90
54178;DHT22;40085;53.004;6.770;2023-02-13T14:46:06;10.00;99.90
54178;DHT22;40085;53.004;6.770;2023-02-13T14:48:52;9.80;99.90
54178;DHT22;40085;53.004;6.770;2023-02-13T14:51:24;9.80;99.90
54178;DHT22;40085;53.004;6.770;2023-02-13T14:54:17;9.80;99.90
54178;DHT22;40085;53.004;6.770;2023-02-13T14:56:46;9.80;99.90
54178;DHT22;40085;53.004;6.770;2023-02-13T14:59:22;9.80;99.90
54178;DHT22;40085;53.004;6.770;2023-02-13T15:02:01;9.80;99.90
54178;DHT22;40085;53.004;6.770;2023-02-13T15:04:41;9.80;99.90
54178;DHT22;40085;53.004;6.770;2023-02-13T15:07:14;9.80;99.90
54178;DHT22;40085;53.004;6.770;2023-02-13T15:09:47;9.80;99.90
54178;DHT22;40085;53.004;6.770;2023-02-13T15:12:43;9.80;99.90
54178;DHT22;40085;53.004;6.770;2023-02-13T15:17:55;9.70;99.90
54178;DHT22;40085;53.004;6.770;2023-02-13T15:20:25;10.00;99.90
54178;DHT22;40085;53.004;6.770;2023-02-13T15:22:52;9.50;99.90
54178;DHT22;40085;53.004;6.770;2023-02-13T15:25:32;9.70;99.90
54178;DHT22;40085;53.004;6.770;2023-02-13T15:27:59;9.70;99.90
54178;DHT22;40085;53.004;6.770;2023-02-13T15:30:28;9.70;99.90
54178;DHT22;40085;53.004;6.770;2023-02-13T15:32:55;9.70;99.90
54178;DHT22;40085;53.004;6.770;2023-02-13T15:35:27;9.70;99.90
54178;DHT22;40085;53.004;6.770;2023-02-13T15:37:53;10.10;99.90
54178;DHT22;40085;53.004;6.770;2023-02-13T15:40:26;9.60;99.90
54178;DHT22;40085;53.004;6.770;2023-02-13T15:42:52;9.50;99.90
54178;DHT22;40085;53.004;6.770;2023-02-13T15:45:20;9.70;99.90
54178;DHT22;40085;53.004;6.770;2023-02-13T15:47:47;9.40;99.90
54178;DHT22;40085;53.004;6.770;2023-02-13T15:50:32;9.30;99.90
54178;DHT22;40085;53.004;6.770;2023-02-13T15:53:00;9.20;99.90
54178;DHT22;40085;53.004;6.770;2023-02-13T15:55:30;9.60;99.90
54178;DHT22;40085;53.004;6.770;2023-02-13T15:58:00;9.20;99.90
54178;DHT22;40085;53.004;6.770;2023-02-13T16:00:28;9.50;99.90
54178;DHT22;40085;53.004;6.770;2023-02-13T16:02:56;9.70;99.90
54178;DHT22;40085;53.004;6.770;2023-02-13T16:05:25;9.80;99.90
54178;DHT22;40085;53.004;6.770;2023-02-13T16:07:58;9.80;99.90
54178;DHT22;40085;53.004;6.770;2023-02-13T16:10:32;9.70;99.90
54178;DHT22;40085;53.004;6.770;2023-02-13T16:13:02;9.60;99.90
54178;DHT22;40085;53.004;6.770;2023-02-13T16:15:30;9.70;99.90
54178;DHT22;40085;53.004;6.770;2023-02-13T16:17:56;9.70;99.90
54178;DHT22;40085;53.004;6.770;2023-02-13T16:20:25;9.70;99.90
54178;DHT22;40085;53.004;6.770;2023-02-13T16:23:06;9.70;99.90
54178;DHT22;40085;53.004;6.770;2023-02-13T16:25:39;9.50;99.90
54178;DHT22;40085;53.004;6.770;2023-02-13T16:28:18;9.20;99.90
54178;DHT22;40085;53.004;6.770;2023-02-13T16:30:51;8.90;99.90
54178;DHT22;40085;53.004;6.770;2023-02-13T16:33:22;8.70;99.90
54178;DHT22;40085;53.004;6.770;2023-02-13T16:35:55;8.50;99.90
54178;DHT22;40085;53.004;6.770;2023-02-13T16:38:38;8.30;99.90
54178;DHT22;40085;53.004;6.770;2023-02-13T16:51:28;7.60;99.90
54178;DHT22;40085;53.004;6.770;2023-02-13T16:56:51;7.30;99.90
54178;DHT22;40085;53.004;6.770;2023-02-13T16:59:33;7.20;99.90
54178;DHT22;40085;53.004;6.770;2023-02-13T17:34:55;6.10;99.90
54178;DHT22;40085;53.004;6.770;2023-02-13T17:37:26;6.00;99.90
54178;DHT22;40085;53.004;6.770;2023-02-13T17:39:53;6.00;99.90
54178;DHT22;40085;53.004;6.770;2023-02-13T17:42:28;5.90;99.90
54178;DHT22;40085;53.004;6.770;2023-02-13T17:44:56;5.80;99.90
54178;DHT22;40085;53.004;6.770;2023-02-13T17:47:23;5.80;99.90
54178;DHT22;40085;53.004;6.770;2023-02-13T17:49:50;5.70;99.90
54178;DHT22;40085;53.004;6.770;2023-02-13T17:52:19;5.60;99.90
54178;DHT22;40085;53.004;6.770;2023-02-13T17:54:45;5.60;99.90
54178;DHT22;40085;53.004;6.770;2023-02-13T17:57:13;5.60;99.90
54178;DHT22;40085;53.004;6.770;2023-02-13T17:59:39;6.20;99.90
54178;DHT22;40085;53.004;6.770;2023-02-13T18:02:13;5.50;99.90
54178;DHT22;40085;53.004;6.770;2023-02-13T18:04:40;5.50;99.90
54178;DHT22;40085;53.004;6.770;2023-02-13T18:07:06;5.50;99.90
54178;DHT22;40085;53.004;6.770;2023-02-13T18:09:31;5.50;99.90
54178;DHT22;40085;53.004;6.770;2023-02-13T18:11:57;5.80;99.90
54178;DHT22;40085;53.004;6.770;2023-02-13T18:14:23;5.40;99.90
54178;DHT22;40085;53.004;6.770;2023-02-13T18:16:48;5.30;99.90
54178;DHT22;40085;53.004;6.770;2023-02-13T18:19:14;5.30;99.90
54178;DHT22;40085;53.004;6.770;2023-02-13T18:21:40;5.30;99.90
54178;DHT22;40085;53.004;6.770;2023-02-13T18:24:06;5.30;99.90
54178;DHT22;40085;53.004;6.770;2023-02-13T18:26:32;5.40;99.90
54178;DHT22;40085;53.004;6.770;2023-02-13T18:28:58;5.50;99.90
54178;DHT22;40085;53.004;6.770;2023-02-13T18:31:24;5.30;99.90
54178;DHT22;40085;53.004;6.770;2023-02-13T18:33:49;5.30;99.90
54178;DHT22;40085;53.004;6.770;2023-02-13T18:36:15;5.30;99.90
54178;DHT22;40085;53.004;6.770;2023-02-13T18:38:40;5.30;99.90
54178;DHT22;40085;53.004;6.770;2023-02-13T18:41:06;5.70;99.90
54178;DHT22;40085;53.004;6.770;2023-02-13T18:43:32;5.20;99.90
54178;DHT22;40085;53.004;6.770;2023-02-13T18:45:57;5.40;99.90
54178;DHT22;40085;53.004;6.770;2023-02-13T18:48:23;5.40;99.90
54178;DHT22;40085;53.004;6.770;2023-02-13T18:50:49;5.30;99.90
54178;DHT22;40085;53.004;6.770;2023-02-13T18:53:15;5.80;99.90
54178;DHT22;40085;53.004;6.770;2023-02-13T18:55:40;5.30;99.90
54178;DHT22;40085;53.004;6.770;2023-02-13T18:58:06;5.20;99.90
54178;DHT22;40085;53.004;6.770;2023-02-13T19:00:32;5.10;99.90
54178;DHT22;40085;53.004;6.770;2023-02-13T19:15:11;4.90;99.90
54178;DHT22;40085;53.004;6.770;2023-02-13T19:32:14;5.20;99.90
54178;DHT22;40085;53.004;6.770;2023-02-13T19:34:40;4.90;99.90
54178;DHT22;40085;53.004;6.770;2023-02-13T19:37:06;5.00;99.90
54178;DHT22;40085;53.004;6.770;2023-02-13T19:39:32;4.90;99.90
54178;DHT22;40085;53.004;6.770;2023-02-13T19:51:43;5.00;99.90
54178;DHT22;40085;53.004;6.770;2023-02-13T20:13:54;4.70;99.90
54178;DHT22;40085;53.004;6.770;2023-02-13T20:16:20;4.60;99.90
54178;DHT22;40085;53.004;6.770;2023-02-13T20:18:48;4.50;99.90
54178;DHT22;40085;53.004;6.770;2023-02-13T20:21:15;4.40;99.90
54178;DHT22;40085;53.004;6.770;2023-02-13T20:23:42;4.50;99.90
54178;DHT22;40085;53.004;6.770;2023-02-13T20:26:13;4.40;99.90
54178;DHT22;40085;53.004;6.770;2023-02-13T20:28:41;4.40;99.90
54178;DHT22;40085;53.004;6.770;2023-02-13T20:31:08;4.30;99.90
54178;DHT22;40085;53.004;6.770;2023-02-13T20:33:36;4.30;99.90
54178;DHT22;40085;53.004;6.770;2023-02-13T20:38:37;4.10;99.90
54178;DHT22;40085;53.004;6.770;2023-02-13T20:41:10;4.00;99.90
54178;DHT22;40085;53.004;6.770;2023-02-13T20:43:36;4.10;99.90
54178;DHT22;40085;53.004;6.770;2023-02-13T20:46:03;3.90;99.90
54178;DHT22;40085;53.004;6.770;2023-02-13T20:48:28;4.00;99.90
54178;DHT22;40085;53.004;6.770;2023-02-13T20:51:02;3.90;99.90
54178;DHT22;40085;53.004;6.770;2023-02-13T20:53:28;4.30;99.90
54178;DHT22;40085;53.004;6.770;2023-02-13T20:56:02;3.90;99.90
54178;DHT22;40085;53.004;6.770;2023-02-13T20:58:29;3.90;99.90
54178;DHT22;40085;53.004;6.770;2023-02-13T21:00:55;3.60;99.90
54178;DHT22;40085;53.004;6.770;2023-02-13T21:03:20;3.60;99.90
54178;DHT22;40085;53.004;6.770;2023-02-13T21:05:46;3.80;99.90
54178;DHT22;40085;53.004;6.770;2023-02-13T21:08:11;3.70;99.90
54178;DHT22;40085;53.004;6.770;2023-02-13T21:10:37;3.70;99.90
54178;DHT22;40085;53.004;6.770;2023-02-13T21:13:03;3.70;99.90
54178;DHT22;40085;53.004;6.770;2023-02-13T21:15:29;4.10;99.90
54178;DHT22;40085;53.004;6.770;2023-02-13T21:17:54;3.70;99.90
54178;DHT22;40085;53.004;6.770;2023-02-13T21:20:22;4.30;99.90
54178;DHT22;40085;53.004;6.770;2023-02-13T21:22:48;3.50;99.90
54178;DHT22;40085;53.004;6.770;2023-02-13T21:25:14;3.50;99.90
54178;DHT22;40085;53.004;6.770;2023-02-13T21:27:43;3.40;99.90
54178;DHT22;40085;53.004;6.770;2023-02-13T21:30:09;5.00;99.90
54178;DHT22;40085;53.004;6.770;2023-02-13T21:32:36;3.30;99.90
54178;DHT22;40085;53.004;6.770;2023-02-13T21:35:06;3.40;99.90
54178;DHT22;40085;53.004;6.770;2023-02-13T21:37:32;3.10;99.90
54178;DHT22;40085;53.004;6.770;2023-02-13T21:39:58;3.20;99.90
54178;DHT22;40085;53.004;6.770;2023-02-13T21:42:26;3.10;99.90
54178;DHT22;40085;53.004;6.770;2023-02-13T21:44:52;3.20;99.90
54178;DHT22;40085;53.004;6.770;2023-02-13T21:47:18;3.10;99.90
54178;DHT22;40085;53.004;6.770;2023-02-13T21:49:44;4.30;99.90
54178;DHT22;40085;53.004;6.770;2023-02-13T21:52:09;4.60;99.90
54178;DHT22;40085;53.004;6.770;2023-02-13T21:54:35;3.10;99.90
54178;DHT22;40085;53.004;6.770;2023-02-13T21:57:00;3.10;99.90
54178;DHT22;40085;53.004;6.770;2023-02-13T21:59:26;3.00;99.90
54178;DHT22;40085;53.004;6.770;2023-02-13T22:01:52;3.00;99.90
54178;DHT22;40085;53.004;6.770;2023-02-13T22:04:18;3.00;99.90
54178;DHT22;40085;53.004;6.770;2023-02-13T22:06:47;3.00;99.90
54178;DHT22;40085;53.004;6.770;2023-02-13T22:09:15;3.00;99.90
54178;DHT22;40085;53.004;6.770;2023-02-13T22:11:41;2.90;99.90
54178;DHT22;40085;53.004;6.770;2023-02-13T22:14:11;3.00;99.90
54178;DHT22;40085;53.004;6.770;2023-02-13T22:16:37;2.90;99.90
54178;DHT22;40085;53.004;6.770;2023-02-13T22:19:05;3.90;99.90
54178;DHT22;40085;53.004;6.770;2023-02-13T22:21:32;2.90;99.90
54178;DHT22;40085;53.004;6.770;2023-02-13T22:23:58;2.90;99.90
54178;DHT22;40085;53.004;6.770;2023-02-13T22:26:26;2.80;99.90
54178;DHT22;40085;53.004;6.770;2023-02-13T22:28:53;2.80;99.90
54178;DHT22;40085;53.004;6.770;2023-02-13T22:31:20;2.70;99.90
54178;DHT22;40085;53.004;6.770;2023-02-13T22:33:46;3.00;99.90
54178;DHT22;40085;53.004;6.770;2023-02-13T22:36:12;2.80;99.90
54178;DHT22;40085;53.004;6.770;2023-02-13T22:38:39;2.80;99.90
54178;DHT22;40085;53.004;6.770;2023-02-13T22:41:14;2.70;99.90
54178;DHT22;40085;53.004;6.770;2023-02-13T22:43:40;2.70;99.90
54178;DHT22;40085;53.004;6.770;2023-02-13T22:46:09;2.70;99.90
54178;DHT22;40085;53.004;6.770;2023-02-13T22:48:37;2.70;99.90
54178;DHT22;40085;53.004;6.770;2023-02-13T22:51:07;2.70;99.90
54178;DHT22;40085;53.004;6.770;2023-02-13T22:53:34;2.60;99.90
54178;DHT22;40085;53.004;6.770;2023-02-13T22:56:01;2.60;99.90
54178;DHT22;40085;53.004;6.770;2023-02-13T22:58:27;2.60;99.90
54178;DHT22;40085;53.004;6.770;2023-02-13T23:00:53;2.60;99.90
54178;DHT22;40085;53.004;6.770;2023-02-13T23:03:19;2.60;99.90
54178;DHT22;40085;53.004;6.770;2023-02-13T23:05:45;2.50;99.90
54178;DHT22;40085;53.004;6.770;2023-02-13T23:08:11;2.60;99.90
54178;DHT22;40085;53.004;6.770;2023-02-13T23:10:36;2.60;99.90
54178;DHT22;40085;53.004;6.770;2023-02-13T23:13:05;2.50;99.90
54178;DHT22;40085;53.004;6.770;2023-02-13T23:15:31;2.50;99.90
54178;DHT22;40085;53.004;6.770;2023-02-13T23:17:56;2.50;99.90
54178;DHT22;40085;53.004;6.770;2023-02-13T23:20:42;3.50;99.90
54178;DHT22;40085;53.004;6.770;2023-02-13T23:23:09;2.40;99.90
54178;DHT22;40085;53.004;6.770;2023-02-13T23:25:36;2.40;99.90
54178;DHT22;40085;53.004;6.770;2023-02-13T23:28:03;2.40;99.90
54178;DHT22;40085;53.004;6.770;2023-02-13T23:30:29;2.40;99.90
54178;DHT22;40085;53.004;6.770;2023-02-13T23:32:56;4.10;99.90
54178;DHT22;40085;53.004;6.770;2023-02-13T23:35:22;2.30;99.90
54178;DHT22;40085;53.004;6.770;2023-02-13T23:37:48;2.30;99.90
54178;DHT22;40085;53.004;6.770;2023-02-13T23:40:15;2.20;99.90
54178;DHT22;40085;53.004;6.770;2023-02-13T23:42:42;2.20;99.90
54178;DHT22;40085;53.004;6.770;2023-02-13T23:45:09;2.20;99.90
54178;DHT22;40085;53.004;6.770;2023-02-13T23:47:34;1.90;99.90
54178;DHT22;40085;53.004;6.770;2023-02-13T23:50:00;2.10;99.90
54178;DHT22;40085;53.004;6.770;2023-02-13T23:52:26;2.00;99.90
54178;DHT22;40085;53.004;6.770;2023-02-13T23:54:51;2.00;99.90
54178;DHT22;40085;53.004;6.770;2023-02-13T23:57:18;2.00;99.90
54178;DHT22;40085;53.004;6.770;2023-02-13T23:59:43;1.90;99.90
